Time,TemperatureF,DewpointF,PressureIn,WindDirection,WindDirectionDegrees,WindSpeedMPH,WindSpeedGustMPH,Humidity,HourlyPrecipIn,Conditions,Clouds,dailyrainin,SolarRadiationWatts/m^2,SoftwareType,DateUTC
2013-04-26 00:07:00,60.0,49.0,30.14,SW,221,0.0,0.0,68,0.00,,,0.00,0,weatherlink.com 1.10,2013-04-25 22:07:00,
2013-04-26 00:22:00,59.6,49.0,30.13,SW,222,0.0,0.0,69,0.00,,,0.00,0,weatherlink.com 1.10,2013-04-25 22:22:00,
2013-04-26 00:37:00,59.5,49.0,30.13,SW,221,0.0,0.0,69,0.00,,,0.00,0,weatherlink.com 1.10,2013-04-25 22:37:00,
2013-04-26 00:52:00,59.5,49.0,30.13,SW,222,0.0,0.0,68,0.00,,,0.00,0,weatherlink.com 1.10,2013-04-25 22:52:00,
2013-04-26 01:07:00,59.2,49.0,30.12,SW,221,0.0,0.0,68,0.00,,,0.00,0,weatherlink.com 1.10,2013-04-25 23:07:00,
2013-04-26 01:22:00,58.7,49.0,30.12,SW,221,0.0,0.0,69,0.00,,,0.00,0,weatherlink.com 1.10,2013-04-25 23:22:00,
2013-04-26 01:37:00,58.3,49.0,30.12,SW,220,0.0,2.0,71,0.00,,,0.00,0,weatherlink.com 1.10,2013-04-25 23:37:00,
2013-04-26 01:52:00,58.3,49.0,30.12,SW,221,0.0,1.0,71,0.00,,,0.00,0,weatherlink.com 1.10,2013-04-25 23:52:00,
2013-04-26 02:07:00,58.2,49.0,30.11,SW,221,0.0,1.0,71,0.00,,,0.00,0,weatherlink.com 1.10,2013-04-26 00:07:00,
2013-04-26 02:22:00,58.2,49.0,30.11,SW,223,0.0,1.0,72,0.00,,,0.00,0,weatherlink.com 1.10,2013-04-26 00:22:00,
2013-04-26 02:37:00,57.8,48.0,30.11,SW,220,0.0,1.0,71,0.00,,,0.00,0,weatherlink.com 1.10,2013-04-26 00:37:00,
2013-04-26 02:52:00,57.2,48.0,30.10,SW,221,0.0,0.0,72,0.00,,,0.00,0,weatherlink.com 1.10,2013-04-26 00:52:00,
2013-04-26 03:07:00,56.4,48.0,30.09,SW,219,0.0,1.0,74,0.00,,,0.00,0,weatherlink.com 1.10,2013-04-26 01:07:00,
2013-04-26 03:22:00,55.6,48.0,30.09,SW,221,0.0,1.0,75,0.00,,,0.00,0,weatherlink.com 1.10,2013-04-26 01:22:00,
2013-04-26 03:37:00,55.1,48.0,30.09,SW,222,0.0,1.0,76,0.00,,,0.00,0,weatherlink.com 1.10,2013-04-26 01:37:00,
2013-04-26 03:52:00,54.9,48.0,30.09,SW,221,0.0,0.0,77,0.00,,,0.00,0,weatherlink.com 1.10,2013-04-26 01:52:00,
2013-04-26 04:07:00,54.5,47.0,30.08,SW,221,0.0,0.0,77,0.00,,,0.00,0,weatherlink.com 1.10,2013-04-26 02:07:00,
2013-04-26 04:22:00,54.2,47.0,30.08,North,360,0.0,1.0,77,0.00,,,0.00,0,weatherlink.com 1.10,2013-04-26 02:22:00,
2013-04-26 04:37:00,54.0,47.0,30.07,SW,221,0.0,0.0,78,0.00,,,0.00,0,weatherlink.com 1.10,2013-04-26 02:37:00,
2013-04-26 04:52:00,53.8,47.0,30.07,North,360,0.0,0.0,78,0.00,,,0.00,0,weatherlink.com 1.10,2013-04-26 02:52:00,
2013-04-26 05:07:00,53.8,47.0,30.07,SW,221,0.0,0.0,78,0.00,,,0.00,0,weatherlink.com 1.10,2013-04-26 03:07:00,
2013-04-26 05:22:00,53.6,47.0,30.07,SW,223,0.0,1.0,78,0.00,,,0.00,0,weatherlink.com 1.10,2013-04-26 03:22:00,
2013-04-26 05:37:00,53.5,47.0,30.07,North,360,0.0,0.0,78,0.00,,,0.00,5,weatherlink.com 1.10,2013-04-26 03:37:00,
2013-04-26 05:52:00,53.6,47.0,30.07,SW,221,0.0,0.0,79,0.00,,,0.00,14,weatherlink.com 1.10,2013-04-26 03:52:00,
2013-04-26 06:08:00,54.6,49.0,30.07,SW,222,0.0,1.0,80,0.00,,,0.00,35,weatherlink.com 1.10,2013-04-26 04:08:00,
2013-04-26 06:23:00,56.7,50.0,30.07,SW,221,0.0,0.0,79,0.00,,,0.00,62,weatherlink.com 1.10,2013-04-26 04:23:00,
2013-04-26 06:38:00,58.5,51.0,30.07,SW,221,0.0,0.0,75,0.00,,,0.00,97,weatherlink.com 1.10,2013-04-26 04:38:00,
2013-04-26 06:53:00,60.4,51.0,30.07,SW,223,0.0,1.0,70,0.00,,,0.00,142,weatherlink.com 1.10,2013-04-26 04:53:00,
2013-04-26 07:08:00,61.6,50.0,30.07,North,360,0.0,1.0,66,0.00,,,0.00,185,weatherlink.com 1.10,2013-04-26 05:08:00,
2013-04-26 07:23:00,63.7,52.0,30.07,SW,227,1.0,3.0,65,0.00,,,0.00,229,weatherlink.com 1.10,2013-04-26 05:23:00,
2013-04-26 07:38:00,63.1,50.0,30.07,SW,227,0.0,2.0,63,0.00,,,0.00,274,weatherlink.com 1.10,2013-04-26 05:38:00,
2013-04-26 07:53:00,66.1,53.0,30.07,NW,318,3.0,4.0,62,0.00,,,0.00,313,weatherlink.com 1.10,2013-04-26 05:53:00,
2013-04-26 08:08:00,65.3,52.0,30.06,NNW,330,0.0,3.0,62,0.00,,,0.00,355,weatherlink.com 1.10,2013-04-26 06:08:00,
2013-04-26 08:23:00,70.2,52.0,30.06,NNW,334,1.0,3.0,53,0.00,,,0.00,399,weatherlink.com 1.10,2013-04-26 06:23:00,
2013-04-26 08:38:00,69.9,53.0,30.05,North,355,0.0,3.0,55,0.00,,,0.00,439,weatherlink.com 1.10,2013-04-26 06:38:00,
2013-04-26 08:53:00,70.0,52.0,30.05,North,360,1.0,3.0,53,0.00,,,0.00,475,weatherlink.com 1.10,2013-04-26 06:53:00,
2013-04-26 09:08:00,71.9,53.0,30.05,NNE,24,1.0,3.0,52,0.00,,,0.00,517,weatherlink.com 1.10,2013-04-26 07:08:00,
2013-04-26 09:23:00,73.0,53.0,30.04,NNE,26,1.0,4.0,49,0.00,,,0.00,554,weatherlink.com 1.10,2013-04-26 07:23:00,
2013-04-26 09:39:00,75.6,54.0,30.04,SW,235,1.0,5.0,47,0.00,,,0.00,591,weatherlink.com 1.10,2013-04-26 07:39:00,
2013-04-26 09:54:00,75.6,53.0,30.03,South,175,4.0,6.0,46,0.00,,,0.00,622,weatherlink.com 1.10,2013-04-26 07:54:00,
2013-04-26 10:09:00,78.6,50.0,30.03,SW,226,10.0,10.0,37,0.00,,,0.00,659,weatherlink.com 1.10,2013-04-26 08:09:00,
2013-04-26 10:24:00,77.0,50.0,30.03,South,175,3.0,9.0,39,0.00,,,0.00,686,weatherlink.com 1.10,2013-04-26 08:24:00,
2013-04-26 10:39:00,79.2,50.0,30.02,WSW,242,4.0,12.0,36,0.00,,,0.00,715,weatherlink.com 1.10,2013-04-26 08:39:00,
2013-04-26 10:54:00,81.1,52.0,30.02,SW,224,4.0,9.0,36,0.00,,,0.00,726,weatherlink.com 1.10,2013-04-26 08:54:00,
2013-04-26 11:09:00,80.3,52.0,30.01,SW,229,1.0,14.0,37,0.00,,,0.00,745,weatherlink.com 1.10,2013-04-26 09:09:00,
2013-04-26 11:24:00,81.7,51.0,30.00,SW,222,4.0,11.0,35,0.00,,,0.00,768,weatherlink.com 1.10,2013-04-26 09:24:00,
2013-04-26 11:39:00,82.1,52.0,30.00,SW,226,2.0,7.0,35,0.00,,,0.00,775,weatherlink.com 1.10,2013-04-26 09:39:00,
2013-04-26 11:54:00,81.3,53.0,29.99,SSW,208,6.0,8.0,37,0.00,,,0.00,788,weatherlink.com 1.10,2013-04-26 09:54:00,
2013-04-26 12:09:00,81.4,52.0,29.98,WSW,248,4.0,8.0,36,0.00,,,0.00,780,weatherlink.com 1.10,2013-04-26 10:09:00,
2013-04-26 12:24:00,81.9,51.0,29.97,South,189,4.0,12.0,34,0.00,,,0.00,798,weatherlink.com 1.10,2013-04-26 10:24:00,
2013-04-26 12:39:00,81.0,52.0,29.96,SSW,208,7.0,12.0,37,0.00,,,0.00,791,weatherlink.com 1.10,2013-04-26 10:39:00,
2013-04-26 12:54:00,80.5,50.0,29.95,SW,224,6.0,14.0,35,0.00,,,0.00,867,weatherlink.com 1.10,2013-04-26 10:54:00,
2013-04-26 13:09:00,82.3,50.0,29.94,SW,231,3.0,12.0,32,0.00,,,0.00,793,weatherlink.com 1.10,2013-04-26 11:09:00,
2013-04-26 13:24:00,80.7,50.0,29.93,SSE,152,4.0,10.0,34,0.00,,,0.00,786,weatherlink.com 1.10,2013-04-26 11:24:00,
2013-04-26 13:39:00,80.7,49.0,29.93,ENE,74,3.0,13.0,33,0.00,,,0.00,766,weatherlink.com 1.10,2013-04-26 11:39:00,
2013-04-26 13:54:00,81.4,49.0,29.92,North,360,7.0,14.0,32,0.00,,,0.00,742,weatherlink.com 1.10,2013-04-26 11:54:00,
2013-04-26 14:09:00,82.7,49.0,29.91,SW,215,1.0,11.0,31,0.00,,,0.00,809,weatherlink.com 1.10,2013-04-26 12:09:00,
2013-04-26 14:24:00,82.0,48.0,29.90,NE,47,2.0,8.0,31,0.00,,,0.00,758,weatherlink.com 1.10,2013-04-26 12:24:00,
2013-04-26 14:39:00,82.0,48.0,29.89,South,184,7.0,9.0,31,0.00,,,0.00,779,weatherlink.com 1.10,2013-04-26 12:39:00,
2013-04-26 14:54:00,83.4,48.0,29.89,SW,227,4.0,9.0,29,0.00,,,0.00,246,weatherlink.com 1.10,2013-04-26 12:54:00,
2013-04-26 15:09:00,82.1,48.0,29.88,SSW,205,4.0,10.0,30,0.00,,,0.00,733,weatherlink.com 1.10,2013-04-26 13:09:00,
2013-04-26 15:25:00,82.7,47.0,29.87,SW,234,9.0,16.0,29,0.00,,,0.00,666,weatherlink.com 1.10,2013-04-26 13:25:00,
2013-04-26 15:40:00,82.7,46.0,29.86,SW,230,3.0,15.0,28,0.00,,,0.00,554,weatherlink.com 1.10,2013-04-26 13:40:00,
2013-04-26 15:55:00,82.7,47.0,29.85,SW,225,3.0,17.0,29,0.00,,,0.00,531,weatherlink.com 1.10,2013-04-26 13:55:00,
2013-04-26 16:10:00,82.8,46.0,29.84,SSW,192,1.0,15.0,28,0.00,,,0.00,496,weatherlink.com 1.10,2013-04-26 14:10:00,
2013-04-26 16:25:00,82.8,46.0,29.84,WSW,250,1.0,9.0,28,0.00,,,0.00,459,weatherlink.com 1.10,2013-04-26 14:25:00,
2013-04-26 16:40:00,82.4,44.0,29.84,SW,236,0.0,17.0,26,0.00,,,0.00,54,weatherlink.com 1.10,2013-04-26 14:40:00,
2013-04-26 16:55:00,81.7,43.0,29.83,SSW,192,6.0,13.0,25,0.00,,,0.00,58,weatherlink.com 1.10,2013-04-26 14:55:00,
2013-04-26 17:10:00,81.8,45.0,29.82,WSW,240,0.0,7.0,27,0.00,,,0.00,53,weatherlink.com 1.10,2013-04-26 15:10:00,
2013-04-26 17:25:00,81.3,43.0,29.82,SSW,197,3.0,13.0,26,0.00,,,0.00,63,weatherlink.com 1.10,2013-04-26 15:25:00,
2013-04-26 17:40:00,81.1,44.0,29.81,WSW,240,5.0,12.0,27,0.00,,,0.00,53,weatherlink.com 1.10,2013-04-26 15:40:00,
2013-04-26 17:55:00,81.0,45.0,29.81,SW,226,5.0,8.0,28,0.00,,,0.00,40,weatherlink.com 1.10,2013-04-26 15:55:00,
2013-04-26 18:10:00,80.5,44.0,29.80,SW,221,4.0,8.0,27,0.00,,,0.00,33,weatherlink.com 1.10,2013-04-26 16:10:00,
2013-04-26 18:25:00,80.0,43.0,29.80,WSW,240,0.0,8.0,27,0.00,,,0.00,32,weatherlink.com 1.10,2013-04-26 16:25:00,
2013-04-26 18:40:00,79.6,42.0,29.79,SSW,209,5.0,8.0,26,0.00,,,0.00,26,weatherlink.com 1.10,2013-04-26 16:40:00,
2013-04-26 18:55:00,78.8,42.0,29.79,WSW,240,1.0,8.0,27,0.00,,,0.00,21,weatherlink.com 1.10,2013-04-26 16:55:00,
2013-04-26 19:10:00,78.3,43.0,29.79,SW,236,3.0,9.0,28,0.00,,,0.00,16,weatherlink.com 1.10,2013-04-26 17:10:00,
2013-04-26 19:25:00,77.6,43.0,29.78,North,360,0.0,4.0,29,0.00,,,0.00,11,weatherlink.com 1.10,2013-04-26 17:25:00,
2013-04-26 19:40:00,76.5,44.0,29.78,SW,225,1.0,3.0,31,0.00,,,0.00,0,weatherlink.com 1.10,2013-04-26 17:40:00,
2013-04-26 19:55:00,75.4,45.0,29.78,SW,234,0.0,5.0,34,0.00,,,0.00,0,weatherlink.com 1.10,2013-04-26 17:55:00,
2013-04-26 20:10:00,74.4,43.0,29.78,SW,227,1.0,5.0,33,0.00,,,0.00,0,weatherlink.com 1.10,2013-04-26 18:10:00,
2013-04-26 20:25:00,73.7,44.0,29.78,SW,232,2.0,5.0,35,0.00,,,0.00,0,weatherlink.com 1.10,2013-04-26 18:25:00,
2013-04-26 20:40:00,72.9,44.0,29.78,SW,234,0.0,4.0,36,0.00,,,0.00,0,weatherlink.com 1.10,2013-04-26 18:40:00,
2013-04-26 20:55:00,72.5,43.0,29.79,SW,233,3.0,6.0,35,0.00,,,0.00,0,weatherlink.com 1.10,2013-04-26 18:55:00,
2013-04-26 21:10:00,72.8,44.0,29.78,SW,234,1.0,5.0,35,0.00,,,0.00,0,weatherlink.com 1.10,2013-04-26 19:10:00,
2013-04-26 21:25:00,72.4,44.0,29.78,SW,232,0.0,3.0,36,0.00,,,0.00,0,weatherlink.com 1.10,2013-04-26 19:25:00,
2013-04-26 21:40:00,71.5,44.0,29.78,SW,236,0.0,2.0,38,0.00,,,0.00,0,weatherlink.com 1.10,2013-04-26 19:40:00,
2013-04-26 21:55:00,70.0,45.0,29.77,North,360,1.0,2.0,41,0.00,,,0.00,0,weatherlink.com 1.10,2013-04-26 19:55:00,
2013-04-26 22:10:00,68.6,45.0,29.77,North,360,0.0,3.0,43,0.00,,,0.00,0,weatherlink.com 1.10,2013-04-26 20:10:00,
2013-04-26 22:25:00,67.9,46.0,29.77,SW,234,1.0,3.0,45,0.00,,,0.00,0,weatherlink.com 1.10,2013-04-26 20:25:00,
2013-04-26 22:55:00,66.7,46.0,29.76,North,360,0.0,1.0,47,0.00,,,0.00,0,weatherlink.com 1.10,2013-04-26 20:55:00,
2013-04-26 23:10:00,66.5,45.0,29.76,SW,233,0.0,2.0,46,0.00,,,0.00,0,weatherlink.com 1.10,2013-04-26 21:10:00,
2013-04-26 23:25:00,66.4,45.0,29.76,SW,232,0.0,1.0,46,0.00,,,0.00,0,weatherlink.com 1.10,2013-04-26 21:25:00,
2013-04-26 23:40:00,66.1,45.0,29.75,SW,234,2.0,2.0,46,0.00,,,0.00,0,weatherlink.com 1.10,2013-04-26 21:40:00,
2013-04-26 23:55:00,66.6,44.0,29.75,SSE,164,2.0,3.0,45,0.00,,,0.00,0,weatherlink.com 1.10,2013-04-26 21:55:00,